createdAt,value
2019-05-29T00:01:54.531Z,51.08
2019-05-29T00:04:27.618Z,50.96
2019-05-29T00:07:00.569Z,50.37
2019-05-29T00:09:33.762Z,50.81
2019-05-29T00:12:08.496Z,50.62
2019-05-29T00:14:41.968Z,51.21
2019-05-29T00:17:14.993Z,51.37
2019-05-29T00:19:48.235Z,51.48
2019-05-29T00:22:21.241Z,51.12
2019-05-29T00:24:54.116Z,51.11
2019-05-29T00:27:27.063Z,50.70
2019-05-29T00:30:00.125Z,51.12
2019-05-29T00:32:33.330Z,51.03
2019-05-29T00:35:10.099Z,50.20
2019-05-29T00:37:43.307Z,49.92
2019-05-29T00:40:17.121Z,50.53
2019-05-29T00:42:50.233Z,50.16
2019-05-29T00:45:23.333Z,50.39
2019-05-29T00:47:56.176Z,49.78
2019-05-29T00:50:29.080Z,49.93
2019-05-29T00:53:02.228Z,50.31
2019-05-29T00:55:35.419Z,50.16
2019-05-29T00:58:08.821Z,49.50
2019-05-29T01:00:41.938Z,49.49
2019-05-29T01:03:15.893Z,49.52
2019-05-29T01:05:49.338Z,50.26
2019-05-29T01:08:22.383Z,49.81
2019-05-29T01:10:55.487Z,50.49
2019-05-29T01:13:28.544Z,49.54
2019-05-29T01:16:02.073Z,49.89
2019-05-29T01:18:35.356Z,49.83
2019-05-29T01:21:08.434Z,49.88
2019-05-29T01:23:41.415Z,50.52
2019-05-29T01:26:16.505Z,50.03
2019-05-29T01:28:49.515Z,49.91
2019-05-29T01:31:23.602Z,50.20
2019-05-29T01:33:56.812Z,50.32
2019-05-29T01:36:30.439Z,51.15
2019-05-29T01:39:03.955Z,51.09
2019-05-29T01:41:36.988Z,51.46
2019-05-29T01:44:10.018Z,51.27
2019-05-29T01:46:43.047Z,51.87
2019-05-29T01:49:16.422Z,52.15
2019-05-29T01:51:50.913Z,52.74
2019-05-29T01:54:23.928Z,52.24
2019-05-29T01:56:56.956Z,52.65
2019-05-29T01:59:29.851Z,52.88
2019-05-29T02:02:02.791Z,53.09
2019-05-29T02:04:35.712Z,53.61
2019-05-29T02:07:08.758Z,53.55
2019-05-29T02:09:41.625Z,54.32
2019-05-29T02:12:14.786Z,54.09
2019-05-29T02:14:47.765Z,54.48
2019-05-29T02:17:21.796Z,54.74
2019-05-29T02:19:54.891Z,54.60
2019-05-29T02:22:27.896Z,55.10
2019-05-29T02:25:00.787Z,55.09
2019-05-29T02:27:33.943Z,55.38
2019-05-29T02:30:09.603Z,55.54
2019-05-29T02:32:42.673Z,55.71
2019-05-29T02:35:15.915Z,55.95
2019-05-29T02:37:49.079Z,56.21
2019-05-29T02:40:24.739Z,56.37
2019-05-29T02:42:56.932Z,57.02
2019-05-29T02:45:52.095Z,57.04
2019-05-29T02:48:05.033Z,57.36
2019-05-29T02:50:38.274Z,56.69
2019-05-29T02:53:11.790Z,57.24
2019-05-29T02:55:44.852Z,56.77
2019-05-29T02:58:18.111Z,56.49
2019-05-29T03:00:57.136Z,56.79
2019-05-29T03:03:36.988Z,57.06
2019-05-29T03:06:05.473Z,57.21
2019-05-29T03:08:38.429Z,56.70
2019-05-29T03:11:11.555Z,57.14
2019-05-29T03:13:44.613Z,57.34
2019-05-29T03:16:17.579Z,57.28
2019-05-29T03:18:50.754Z,57.29
2019-05-29T03:21:24.131Z,57.70
2019-05-29T03:23:58.385Z,57.79
2019-05-29T03:26:32.927Z,57.79
2019-05-29T03:29:06.081Z,57.51
2019-05-29T03:31:46.491Z,57.39
2019-05-29T03:34:13.846Z,57.53
2019-05-29T03:36:48.660Z,57.64
2019-05-29T03:39:21.796Z,57.80
2019-05-29T03:41:54.825Z,57.77
2019-05-29T03:44:28.726Z,57.89
2019-05-29T03:47:02.045Z,57.97
2019-05-29T03:49:35.408Z,58.28
2019-05-29T03:52:09.922Z,57.88
2019-05-29T03:54:42.788Z,57.09
2019-05-29T03:57:15.739Z,57.24
2019-05-29T03:59:48.682Z,56.87
2019-05-29T04:02:21.682Z,56.54
2019-05-29T04:04:54.741Z,56.44
2019-05-29T04:07:29.145Z,56.45
2019-05-29T04:10:02.221Z,55.93
2019-05-29T04:12:35.629Z,55.98
2019-05-29T04:15:08.786Z,55.95
2019-05-29T04:17:41.866Z,56.27
2019-05-29T04:20:16.904Z,55.23
2019-05-29T04:22:50.010Z,55.02
2019-05-29T04:25:22.906Z,54.75
2019-05-29T04:27:56.007Z,54.75
2019-05-29T04:30:29.999Z,54.41
2019-05-29T04:33:03.384Z,54.17
2019-05-29T04:35:36.792Z,53.76
2019-05-29T04:38:10.131Z,53.87
2019-05-29T04:40:43.054Z,53.76
2019-05-29T04:43:16.279Z,53.75
2019-05-29T04:45:49.184Z,53.11
2019-05-29T04:48:22.296Z,52.89
2019-05-29T04:50:55.323Z,52.23
2019-05-29T04:53:29.474Z,52.28
2019-05-29T04:56:02.900Z,51.45
2019-05-29T04:58:36.933Z,51.38
2019-05-29T05:01:10.013Z,51.65
2019-05-29T05:03:42.929Z,51.48
2019-05-29T05:06:16.068Z,50.56
2019-05-29T05:08:48.920Z,50.50
2019-05-29T05:11:21.829Z,50.39
2019-05-29T05:13:55.786Z,50.52
2019-05-29T05:16:29.720Z,50.49
2019-05-29T05:19:02.904Z,50.10
2019-05-29T05:21:36.036Z,49.63
2019-05-29T05:24:09.141Z,49.62
2019-05-29T05:26:42.251Z,49.70
2019-05-29T05:29:15.071Z,49.27
2019-05-29T05:31:48.153Z,49.46
2019-05-29T05:34:21.044Z,48.64
2019-05-29T05:36:53.915Z,48.63
2019-05-29T05:39:26.794Z,48.97
2019-05-29T05:42:00.011Z,48.74
2019-05-29T05:44:32.864Z,49.32
2019-05-29T05:47:05.794Z,49.25
2019-05-29T05:49:39.500Z,49.43
2019-05-29T05:52:12.624Z,49.60
2019-05-29T05:54:45.501Z,50.03
2019-05-29T05:57:18.355Z,49.31
2019-05-29T05:59:52.335Z,49.47
2019-05-29T06:02:25.247Z,49.31
2019-05-29T06:04:58.076Z,48.40
2019-05-29T06:07:32.026Z,47.31
2019-05-29T06:10:07.655Z,47.36
2019-05-29T06:12:40.665Z,47.51
2019-05-29T06:15:13.741Z,47.21
2019-05-29T06:18:04.610Z,45.52
2019-05-29T06:20:22.275Z,45.57
2019-05-29T06:22:55.448Z,45.56
2019-05-29T06:25:28.412Z,44.04
2019-05-29T06:28:01.399Z,45.00
2019-05-29T06:30:36.152Z,44.62
2019-05-29T06:33:09.087Z,44.83
2019-05-29T06:35:42.168Z,45.17
2019-05-29T06:38:15.087Z,45.33
2019-05-29T06:40:47.913Z,45.10
2019-05-29T06:43:26.101Z,45.57
2019-05-29T06:45:59.062Z,44.50
2019-05-29T06:48:44.753Z,43.88
2019-05-29T06:51:07.351Z,43.77
2019-05-29T06:53:41.755Z,44.84
2019-05-29T06:56:16.078Z,44.06
2019-05-29T06:58:49.636Z,43.91
2019-05-29T07:01:22.738Z,43.82
2019-05-29T07:04:11.172Z,43.84
2019-05-29T07:06:30.951Z,43.85
2019-05-29T07:09:05.233Z,43.94
2019-05-29T07:11:39.039Z,44.14
2019-05-29T07:14:12.201Z,44.20
2019-05-29T07:16:55.117Z,44.37
2019-05-29T07:19:34.207Z,44.62
2019-05-29T07:21:55.530Z,43.53
2019-05-29T07:24:28.528Z,43.69
2019-05-29T07:27:01.773Z,44.18
2019-05-29T07:29:34.811Z,44.34
2019-05-29T07:32:07.798Z,44.38
2019-05-29T07:34:57.263Z,44.13
2019-05-29T07:37:15.482Z,44.70
2019-05-29T07:39:48.361Z,43.97
2019-05-29T07:42:21.308Z,44.02
2019-05-29T07:44:54.811Z,44.33
2019-05-29T07:47:27.964Z,44.20
2019-05-29T07:50:00.914Z,44.00
2019-05-29T07:52:33.839Z,44.68
2019-05-29T07:55:08.184Z,44.20
2019-05-29T07:57:42.651Z,43.99
2019-05-29T08:00:16.039Z,43.51
2019-05-29T08:02:49.471Z,43.31
2019-05-29T08:05:22.636Z,42.77
2019-05-29T08:07:55.762Z,42.22
2019-05-29T08:10:29.086Z,41.89
2019-05-29T08:13:02.187Z,42.46
2019-05-29T08:15:51.211Z,42.15
2019-05-29T08:18:09.658Z,42.34
2019-05-29T08:20:43.909Z,41.77
2019-05-29T08:23:16.995Z,41.55
2019-05-29T08:25:51.856Z,41.45
2019-05-29T08:28:25.001Z,42.25
2019-05-29T08:30:57.875Z,42.80
2019-05-29T08:33:32.146Z,42.71
2019-05-29T08:36:05.166Z,41.74
2019-05-29T08:38:38.085Z,40.81
2019-05-29T08:41:11.111Z,40.79
2019-05-29T08:43:45.180Z,41.37
2019-05-29T08:46:18.601Z,41.03
2019-05-29T08:48:54.196Z,42.12
2019-05-29T08:51:27.338Z,42.08
2019-05-29T08:54:00.343Z,41.72
2019-05-29T08:56:33.325Z,42.33
2019-05-29T08:59:06.392Z,42.37
2019-05-29T09:01:39.586Z,42.38
2019-05-29T09:04:13.185Z,41.31
2019-05-29T09:06:46.964Z,40.39
2019-05-29T09:09:20.001Z,40.68
2019-05-29T09:11:53.922Z,39.78
2019-05-29T09:14:27.013Z,40.75
2019-05-29T09:17:00.106Z,40.31
2019-05-29T09:19:33.111Z,40.70
2019-05-29T09:22:06.607Z,41.07
2019-05-29T09:24:39.458Z,41.55
2019-05-29T09:27:12.753Z,40.11
2019-05-29T09:29:46.920Z,40.63
2019-05-29T09:32:40.729Z,41.86
2019-05-29T09:34:54.784Z,41.09
2019-05-29T09:37:27.646Z,41.38
2019-05-29T09:40:00.607Z,40.08
2019-05-29T09:42:33.624Z,40.87
2019-05-29T09:45:07.756Z,42.09
2019-05-29T09:47:40.633Z,41.89
2019-05-29T09:50:13.839Z,42.51
2019-05-29T09:52:46.777Z,42.17
2019-05-29T09:55:19.807Z,42.34
2019-05-29T09:57:54.120Z,41.63
2019-05-29T10:00:27.470Z,42.19
2019-05-29T10:03:01.440Z,42.55
2019-05-29T10:05:34.515Z,41.63
2019-05-29T10:08:07.410Z,41.20
2019-05-29T10:10:40.422Z,40.62
2019-05-29T10:13:13.443Z,39.96
2019-05-29T10:15:46.407Z,39.64
2019-05-29T10:18:32.175Z,39.40
2019-05-29T10:20:55.852Z,39.23
2019-05-29T10:23:29.003Z,39.73
2019-05-29T10:26:03.417Z,39.40
2019-05-29T10:28:50.135Z,39.50
2019-05-29T10:31:11.170Z,38.49
2019-05-29T10:33:44.257Z,39.06
2019-05-29T10:36:17.125Z,38.43
2019-05-29T10:38:50.729Z,38.83
2019-05-29T10:41:24.169Z,38.10
2019-05-29T10:43:58.602Z,38.38
2019-05-29T10:46:31.745Z,37.37
2019-05-29T10:49:05.026Z,37.15
2019-05-29T10:51:38.196Z,38.01
2019-05-29T10:54:11.161Z,38.34
2019-05-29T10:56:44.753Z,38.89
2019-05-29T10:59:17.767Z,38.86
2019-05-29T11:01:51.338Z,37.73
2019-05-29T11:04:24.792Z,37.30
2019-05-29T11:06:57.737Z,37.19
2019-05-29T11:09:43.886Z,38.05
2019-05-29T11:12:05.796Z,37.80
2019-05-29T11:14:38.721Z,36.67
2019-05-29T11:17:11.617Z,37.11
2019-05-29T11:19:44.562Z,37.73
2019-05-29T11:22:26.335Z,39.22
2019-05-29T11:24:52.534Z,38.01
2019-05-29T11:27:26.269Z,36.82
2019-05-29T11:29:59.412Z,36.51
2019-05-29T11:32:32.463Z,36.72
2019-05-29T11:35:06.164Z,36.79
2019-05-29T11:37:39.272Z,36.69
2019-05-29T11:40:12.537Z,37.04
2019-05-29T11:42:45.547Z,37.73
2019-05-29T11:45:19.623Z,37.95
2019-05-29T11:47:53.956Z,37.50
2019-05-29T11:50:29.083Z,37.48
2019-05-29T11:53:02.678Z,37.60
2019-05-29T11:55:35.615Z,37.62
2019-05-29T11:58:08.693Z,37.95
2019-05-29T12:00:41.671Z,36.89
2019-05-29T12:03:15.087Z,37.08
2019-05-29T12:05:47.964Z,36.81
2019-05-29T12:08:20.904Z,36.86
2019-05-29T12:10:53.961Z,36.90
2019-05-29T12:13:27.145Z,36.73
2019-05-29T12:16:00.230Z,37.15
2019-05-29T12:18:33.184Z,36.45
2019-05-29T12:21:06.116Z,36.30
2019-05-29T12:23:39.117Z,37.42
2019-05-29T12:26:21.473Z,38.12
2019-05-29T12:28:47.026Z,38.43
2019-05-29T12:31:20.050Z,38.38
2019-05-29T12:33:53.027Z,38.57
2019-05-29T12:36:25.955Z,38.82
2019-05-29T12:38:59.607Z,38.33
2019-05-29T12:41:32.866Z,38.29
2019-05-29T12:44:06.291Z,38.59
2019-05-29T12:46:39.237Z,38.48
2019-05-29T12:49:12.320Z,37.35
2019-05-29T12:51:45.397Z,36.32
2019-05-29T12:54:18.303Z,36.91
2019-05-29T12:56:51.251Z,37.43
2019-05-29T12:59:24.048Z,37.85
2019-05-29T13:01:58.427Z,37.76
2019-05-29T13:04:31.520Z,38.39
2019-05-29T13:07:04.738Z,37.37
2019-05-29T13:09:37.763Z,36.77
2019-05-29T13:12:10.738Z,37.27
2019-05-29T13:14:43.690Z,37.66
2019-05-29T13:17:16.780Z,37.16
2019-05-29T13:19:49.767Z,37.02
2019-05-29T13:22:22.898Z,36.65
2019-05-29T13:24:57.221Z,36.92
2019-05-29T13:27:30.514Z,36.88
2019-05-29T13:30:08.413Z,36.54
2019-05-29T13:32:41.905Z,35.82
2019-05-29T13:35:15.202Z,35.46
2019-05-29T13:37:48.619Z,35.15
2019-05-29T13:40:26.207Z,35.12
2019-05-29T13:43:04.397Z,35.31
2019-05-29T13:45:37.185Z,34.50
2019-05-29T13:48:10.482Z,34.77
2019-05-29T13:50:43.469Z,35.13
2019-05-29T13:53:16.552Z,35.72
2019-05-29T13:55:49.960Z,36.03
2019-05-29T13:58:23.575Z,35.56
2019-05-29T14:00:58.128Z,35.67
2019-05-29T14:03:31.390Z,35.69
2019-05-29T14:06:05.526Z,35.91
2019-05-29T14:08:39.696Z,36.32
2019-05-29T14:11:13.121Z,36.75
2019-05-29T14:13:46.428Z,37.17
2019-05-29T14:16:22.203Z,36.60
2019-05-29T14:18:55.414Z,36.52
2019-05-29T14:21:28.867Z,36.26
2019-05-29T14:24:07.387Z,35.93
2019-05-29T14:26:36.985Z,36.38
2019-05-29T14:29:11.720Z,36.22
2019-05-29T14:31:46.233Z,35.99
2019-05-29T14:34:19.730Z,36.56
2019-05-29T14:36:52.715Z,36.89
2019-05-29T14:39:25.973Z,37.25
2019-05-29T14:41:59.411Z,36.94
2019-05-29T14:44:32.724Z,36.86
2019-05-29T14:47:07.992Z,36.12
2019-05-29T14:49:44.617Z,36.20
2019-05-29T14:52:17.973Z,36.03
2019-05-29T14:54:51.410Z,35.77
2019-05-29T14:57:26.321Z,35.98
2019-05-29T14:59:59.579Z,35.95
2019-05-29T15:02:32.628Z,36.15
2019-05-29T15:05:07.939Z,36.30
2019-05-29T15:07:40.934Z,36.22
2019-05-29T15:10:24.802Z,36.39
2019-05-29T15:12:49.444Z,36.71
2019-05-29T15:15:22.588Z,36.35
2019-05-29T15:17:55.770Z,36.88
2019-05-29T15:20:28.705Z,36.99
2019-05-29T15:23:02.940Z,37.11
2019-05-29T15:25:36.202Z,37.54
2019-05-29T15:28:12.024Z,37.70
2019-05-29T15:30:45.042Z,37.95
2019-05-29T15:33:17.945Z,38.08
2019-05-29T15:35:51.226Z,38.19
2019-05-29T15:38:24.421Z,38.25
2019-05-29T15:40:57.823Z,38.31
2019-05-29T15:43:30.901Z,38.12
2019-05-29T15:46:04.007Z,38.19
2019-05-29T15:48:37.443Z,38.57
2019-05-29T15:51:10.993Z,38.28
2019-05-29T15:53:43.828Z,38.21
2019-05-29T15:56:26.924Z,38.45
2019-05-29T15:58:51.627Z,38.69
2019-05-29T16:01:24.660Z,38.58
2019-05-29T16:03:57.745Z,38.72
2019-05-29T16:06:30.833Z,38.73
2019-05-29T16:09:03.899Z,38.75
2019-05-29T16:11:37.385Z,38.99
2019-05-29T16:14:10.673Z,39.21
2019-05-29T16:16:43.820Z,39.39
2019-05-29T16:19:16.843Z,39.48
2019-05-29T16:21:49.887Z,39.87
2019-05-29T16:24:23.050Z,40.08
2019-05-29T16:27:08.410Z,40.40
2019-05-29T16:29:32.656Z,40.94
2019-05-29T16:32:06.141Z,40.98
2019-05-29T16:34:39.428Z,41.29
2019-05-29T16:37:13.155Z,41.38
2019-05-29T16:39:46.118Z,41.40
2019-05-29T16:42:20.559Z,41.09
2019-05-29T16:44:53.845Z,41.03
2019-05-29T16:47:26.825Z,41.03
2019-05-29T16:50:00.184Z,40.73
2019-05-29T16:52:33.204Z,40.87
2019-05-29T16:55:06.954Z,40.98
2019-05-29T16:57:39.898Z,41.09
2019-05-29T17:00:15.519Z,41.50
2019-05-29T17:02:48.743Z,41.33
2019-05-29T17:05:22.263Z,41.24
2019-05-29T17:07:55.836Z,41.27
2019-05-29T17:10:37.308Z,41.08
2019-05-29T17:13:10.422Z,41.33
2019-05-29T17:15:43.712Z,41.19
2019-05-29T17:18:16.796Z,41.30
2019-05-29T17:20:50.091Z,41.32
2019-05-29T17:23:23.492Z,41.40
2019-05-29T17:26:10.123Z,41.46
2019-05-29T17:28:31.613Z,41.42
2019-05-29T17:31:05.009Z,41.43
2019-05-29T17:33:38.710Z,41.36
2019-05-29T17:36:12.924Z,41.36
2019-05-29T17:38:46.183Z,41.45
2019-05-29T17:41:19.288Z,41.40
2019-05-29T17:43:52.347Z,41.56
2019-05-29T17:46:25.947Z,41.63
2019-05-29T17:48:59.095Z,41.64
2019-05-29T17:51:33.348Z,41.72
2019-05-29T17:54:06.472Z,41.98
2019-05-29T17:56:39.651Z,42.19
2019-05-29T17:59:13.460Z,42.29
2019-05-29T18:01:46.537Z,42.68
2019-05-29T18:04:20.359Z,42.84
2019-05-29T18:06:56.491Z,42.83
2019-05-29T18:09:29.421Z,43.03
2019-05-29T18:12:02.294Z,43.09
2019-05-29T18:14:35.166Z,43.14
2019-05-29T18:17:08.159Z,43.30
2019-05-29T18:19:41.137Z,43.57
2019-05-29T18:22:15.187Z,43.75
2019-05-29T18:24:48.142Z,43.64
2019-05-29T18:27:21.864Z,43.69
2019-05-29T18:29:54.833Z,43.80
2019-05-29T18:32:29.038Z,44.21
2019-05-29T18:35:02.275Z,44.31
2019-05-29T18:37:35.594Z,44.91
2019-05-29T18:40:12.465Z,45.01
2019-05-29T18:42:44.325Z,45.32
2019-05-29T18:45:22.449Z,45.76
2019-05-29T18:47:54.019Z,45.67
2019-05-29T18:50:27.570Z,46.08
2019-05-29T18:53:00.831Z,45.89
2019-05-29T18:55:34.025Z,46.01
2019-05-29T18:58:07.086Z,46.09
2019-05-29T19:00:40.013Z,46.50
2019-05-29T19:03:12.953Z,46.63
2019-05-29T19:05:45.975Z,47.55
2019-05-29T19:08:19.070Z,47.17
2019-05-29T19:10:52.111Z,47.27
2019-05-29T19:13:25.804Z,47.25
2019-05-29T19:15:58.964Z,47.48
2019-05-29T19:18:34.717Z,47.72
2019-05-29T19:21:07.820Z,47.82
2019-05-29T19:23:40.712Z,48.16
2019-05-29T19:26:13.939Z,48.36
2019-05-29T19:28:47.004Z,48.31
2019-05-29T19:31:19.924Z,48.73
2019-05-29T19:33:52.925Z,48.76
2019-05-29T19:36:26.114Z,48.64
2019-05-29T19:38:59.101Z,48.81
2019-05-29T19:41:33.945Z,48.92
2019-05-29T19:44:07.219Z,48.87
2019-05-29T19:46:53.069Z,48.70
2019-05-29T19:49:15.023Z,49.10
2019-05-29T19:51:48.069Z,48.95
2019-05-29T19:54:21.034Z,49.36
2019-05-29T19:56:54.195Z,49.96
2019-05-29T19:59:27.933Z,49.79
2019-05-29T20:02:01.180Z,49.72
2019-05-29T20:04:34.747Z,49.70
2019-05-29T20:07:07.885Z,50.04
2019-05-29T20:09:40.822Z,49.79
2019-05-29T20:12:13.835Z,49.92
2019-05-29T20:14:46.834Z,49.91
2019-05-29T20:17:19.840Z,50.03
2019-05-29T20:19:52.801Z,49.96
2019-05-29T20:22:25.919Z,50.15
2019-05-29T20:24:59.028Z,50.42
2019-05-29T20:27:32.135Z,50.45
2019-05-29T20:30:06.658Z,50.63
2019-05-29T20:32:39.676Z,50.34
2019-05-29T20:35:12.630Z,50.46
2019-05-29T20:37:46.767Z,50.23
2019-05-29T20:40:19.771Z,50.56
2019-05-29T20:42:52.806Z,50.75
2019-05-29T20:45:27.379Z,50.39
2019-05-29T20:48:00.364Z,50.26
2019-05-29T20:50:33.582Z,50.94
2019-05-29T20:53:06.524Z,50.62
2019-05-29T20:55:39.825Z,50.47
2019-05-29T20:58:24.152Z,50.56
2019-05-29T21:00:47.569Z,50.73
2019-05-29T21:03:20.857Z,51.60
2019-05-29T21:05:53.747Z,51.86
2019-05-29T21:08:26.746Z,52.37
2019-05-29T21:10:59.618Z,52.50
2019-05-29T21:13:33.323Z,51.95
2019-05-29T21:16:07.318Z,51.64
2019-05-29T21:18:42.076Z,52.57
2019-05-29T21:21:16.354Z,52.53
2019-05-29T21:23:49.353Z,52.22
2019-05-29T21:26:22.232Z,52.20
2019-05-29T21:28:55.155Z,51.77
2019-05-29T21:31:28.018Z,51.71
2019-05-29T21:34:01.157Z,52.60
2019-05-29T21:36:34.017Z,52.23
2019-05-29T21:39:08.744Z,52.08
2019-05-29T21:41:42.615Z,52.09
2019-05-29T21:44:16.935Z,52.30
2019-05-29T21:46:50.135Z,52.58
2019-05-29T21:49:23.205Z,52.14
2019-05-29T21:51:56.190Z,52.50
2019-05-29T21:54:29.250Z,52.43
2019-05-29T21:57:02.123Z,52.95
2019-05-29T21:59:35.046Z,52.73
2019-05-29T22:02:08.714Z,52.90
2019-05-29T22:04:42.266Z,52.94
2019-05-29T22:07:17.076Z,53.14
2019-05-29T22:09:50.292Z,53.05
2019-05-29T22:12:23.511Z,53.09
2019-05-29T22:14:56.860Z,52.66
2019-05-29T22:17:30.168Z,53.17
2019-05-29T22:20:04.558Z,53.26
2019-05-29T22:22:37.860Z,53.07
2019-05-29T22:25:10.997Z,53.21
2019-05-29T22:27:43.921Z,53.38
2019-05-29T22:30:16.846Z,53.42
2019-05-29T22:32:51.150Z,53.11
2019-05-29T22:35:24.125Z,53.18
2019-05-29T22:37:57.691Z,53.35
2019-05-29T22:40:31.649Z,53.53
2019-05-29T22:43:04.706Z,53.71
2019-05-29T22:45:37.690Z,53.70
2019-05-29T22:48:10.708Z,53.77
2019-05-29T22:50:43.846Z,53.63
2019-05-29T22:53:16.679Z,53.72
2019-05-29T22:55:49.686Z,53.70
2019-05-29T22:58:22.517Z,54.08
2019-05-29T23:00:55.954Z,53.99
2019-05-29T23:03:29.059Z,53.58
2019-05-29T23:06:02.544Z,53.49
2019-05-29T23:08:35.569Z,53.58
2019-05-29T23:11:08.502Z,53.67
2019-05-29T23:13:41.613Z,54.27
2019-05-29T23:16:14.760Z,54.38
2019-05-29T23:18:47.752Z,54.59
2019-05-29T23:21:20.646Z,53.90
2019-05-29T23:23:53.665Z,53.86
2019-05-29T23:26:26.591Z,54.35
2019-05-29T23:28:59.533Z,54.50
2019-05-29T23:31:32.708Z,54.96
2019-05-29T23:34:05.582Z,54.97
2019-05-29T23:36:38.497Z,54.87
2019-05-29T23:39:11.390Z,55.04
2019-05-29T23:41:44.307Z,55.17
2019-05-29T23:44:18.864Z,55.35
2019-05-29T23:46:51.883Z,55.08
2019-05-29T23:49:24.822Z,55.34
2019-05-29T23:51:57.964Z,55.35
2019-05-29T23:54:30.772Z,55.29
2019-05-29T23:57:04.215Z,55.09
2019-05-29T23:59:37.320Z,55.10
